Terminal Aerodrome Forecast
Issued by NWS

Home | Current Version | Previous Version | Text Only | Print | Product List | Glossary On
Versions: 1 2 3 4 5 6 7 8 9 10 11 12 13 14 15
000
FTUS46 KOTX 252339
TAFSFF
TAF
KSFF 252339Z 2600/2624 23011G19KT P6SM VCSH SCT050 BKN090
     FM260200 21010KT P6SM VCSH SCT050 BKN090
     FM260800 VRB04KT P6SM SCT090
     FM261500 20005KT P6SM SCT150 BKN200
     FM262000 21010G18KT P6SM VCSH SCT050 BKN130=

USA.gov is the U.S. government's official web portal to all federal, state and local government web resources and services.